Time;durP1;ratioP1;P1;durP2;ratioP2;P2;SDS_P1;SDS_P2;PMS_P1;PMS_P2;Temp;Humidity;BMP_temperature;BMP_pressure;BME280_temperature;BME280_humidity;BME280_pressure;Samples;Min_cycle;Max_cycle;Signal;HPM_P1;HPM_P2
2022/04/28 00:00:07;;;;;;;13.60;7.13;;;3.20;99.90;;;;;;5020097;28;20102;-75
2022/04/28 00:02:33;;;;;;;14.47;9.00;;;3.30;99.90;;;;;;5005442;28;20498;-76
2022/04/28 00:05:00;;;;;;;14.47;7.33;;;3.20;99.90;;;;;;5003808;28;20408;-76
2022/04/28 00:07:25;;;;;;;18.03;9.10;;;3.20;99.90;;;;;;5005484;28;20073;-76
2022/04/28 00:09:51;;;;;;;19.63;9.03;;;3.10;99.90;;;;;;5004792;28;20082;-76
2022/04/28 00:12:17;;;;;;;15.57;8.87;;;3.10;99.90;;;;;;5001844;28;20559;-76
2022/04/28 00:14:43;;;;;;;13.73;8.17;;;3.10;99.90;;;;;;5003272;28;20034;-76
2022/04/28 00:17:09;;;;;;;15.33;7.60;;;3.10;99.90;;;;;;5006293;28;20515;-76
2022/04/28 00:19:35;;;;;;;16.93;8.53;;;3.10;99.90;;;;;;5004973;28;20037;-76
2022/04/28 00:22:00;;;;;;;14.80;7.67;;;3.10;99.90;;;;;;5004319;28;20095;-76
2022/04/28 00:24:26;;;;;;;16.43;8.03;;;3.20;99.90;;;;;;4986288;28;20088;-76
2022/04/28 00:26:52;;;;;;;12.57;6.67;;;3.30;99.90;;;;;;5020320;28;20124;-75
2022/04/28 00:29:17;;;;;;;14.73;7.97;;;3.30;99.90;;;;;;5021723;28;20034;-76
2022/04/28 00:31:43;;;;;;;10.87;5.93;;;3.30;99.90;;;;;;5001220;28;20121;-76
2022/04/28 00:34:08;;;;;;;15.53;8.20;;;3.30;99.90;;;;;;5005352;28;20046;-75
2022/04/28 00:36:34;;;;;;;11.57;7.33;;;3.30;99.90;;;;;;5004969;28;20041;-75
2022/04/28 00:38:59;;;;;;;12.90;7.03;;;3.20;99.90;;;;;;5002756;28;20037;-76
2022/04/28 00:41:25;;;;;;;15.87;8.10;;;3.20;99.90;;;;;;5001563;28;20045;-75
2022/04/28 00:43:54;;;;;;;12.67;7.13;;;3.10;99.90;;;;;;5006391;28;20061;-75
2022/04/28 00:46:21;;;;;;;12.57;6.90;;;3.10;99.90;;;;;;5004217;28;20045;-75
2022/04/28 00:51:34;;;;;;;14.48;7.63;;;3.00;99.90;;;;;;5003885;28;20488;-75
2022/04/28 00:54:02;;;;;;;16.70;6.73;;;2.90;99.90;;;;;;5003518;28;20058;-75
2022/04/28 00:56:28;;;;;;;14.80;8.53;;;2.90;99.90;;;;;;5005260;28;20111;-75
2022/04/28 00:58:56;;;;;;;17.83;7.40;;;2.90;99.90;;;;;;5002411;28;20038;-75
2022/04/28 01:01:22;;;;;;;15.67;8.70;;;3.00;99.90;;;;;;4985702;28;20145;-75
2022/04/28 01:03:48;;;;;;;15.33;6.97;;;3.00;99.90;;;;;;5001891;28;20498;-75
2022/04/28 01:06:14;;;;;;;14.03;7.93;;;3.00;99.90;;;;;;5005780;28;20073;-75
2022/04/28 01:08:41;;;;;;;11.63;7.57;;;3.10;99.90;;;;;;5018345;28;20038;-75
2022/04/28 01:11:07;;;;;;;12.80;7.13;;;3.10;99.90;;;;;;5006024;28;20468;-75
2022/04/28 01:13:33;;;;;;;16.90;8.07;;;3.10;99.90;;;;;;5001874;28;20042;-75
2022/04/28 01:15:59;;;;;;;12.27;6.87;;;3.10;99.90;;;;;;4984719;28;20496;-75
2022/04/28 01:18:25;;;;;;;16.67;9.23;;;3.20;99.90;;;;;;4998928;28;20056;-75
2022/04/28 01:20:50;;;;;;;15.57;7.57;;;3.20;99.90;;;;;;5004350;28;20410;-75
2022/04/28 01:23:18;;;;;;;14.83;8.70;;;3.20;99.90;;;;;;5003582;28;20166;-75
2022/04/28 01:25:43;;;;;;;14.00;7.43;;;3.30;99.90;;;;;;5005535;28;20045;-75
2022/04/28 01:28:09;;;;;;;12.40;7.20;;;3.30;99.90;;;;;;5003879;28;20041;-75
2022/04/28 01:30:37;;;;;;;15.97;7.67;;;3.30;99.90;;;;;;4985015;28;20087;-75
2022/04/28 01:33:03;;;;;;;12.87;7.17;;;3.30;99.90;;;;;;5003920;28;20102;-75
2022/04/28 01:35:29;;;;;;;12.93;7.13;;;3.30;99.90;;;;;;5003872;28;20121;-75
2022/04/28 01:37:55;;;;;;;13.33;7.13;;;3.30;99.90;;;;;;5005021;28;20124;-75
2022/04/28 01:40:21;;;;;;;13.00;8.17;;;3.30;99.90;;;;;;5003314;28;20045;-76
2022/04/28 01:42:50;;;;;;;13.53;7.30;;;3.40;99.90;;;;;;5004528;28;20046;-76
2022/04/28 01:45:16;;;;;;;14.53;7.97;;;3.50;99.90;;;;;;5002695;28;20168;-75
2022/04/28 01:47:42;;;;;;;11.53;6.80;;;3.60;99.90;;;;;;5005488;28;20041;-76
2022/04/28 01:50:10;;;;;;;11.13;7.80;;;3.60;99.90;;;;;;5004257;28;20038;-76
2022/04/28 01:55:32;;;;;;;17.60;8.80;;;3.70;99.90;;;;;;4937196;28;20043;-76
2022/04/28 01:57:59;;;;;;;16.13;8.17;;;3.70;99.90;;;;;;5005062;28;20059;-77
2022/04/28 02:00:24;;;;;;;11.67;7.43;;;3.80;99.90;;;;;;4989663;28;20562;-77
2022/04/28 02:02:50;;;;;;;13.60;7.17;;;3.80;99.90;;;;;;5007592;28;20041;-77
2022/04/28 02:05:16;;;;;;;13.10;7.50;;;3.80;99.90;;;;;;5006539;28;20514;-77
2022/04/28 02:07:42;;;;;;;13.60;7.80;;;3.90;99.90;;;;;;5006899;28;20038;-77
2022/04/28 02:10:08;;;;;;;11.27;8.53;;;3.90;99.90;;;;;;5004272;28;20387;-77
2022/04/28 02:12:33;;;;;;;15.03;8.73;;;3.90;99.90;;;;;;5008139;28;20491;-77
2022/04/28 02:14:59;;;;;;;14.57;8.03;;;4.00;99.90;;;;;;5007224;28;20038;-76
2022/04/28 02:17:27;;;;;;;14.40;7.77;;;4.00;99.90;;;;;;5004431;28;20042;-77
2022/04/28 02:19:53;;;;;;;14.82;7.80;;;4.00;99.90;;;;;;4990875;28;20066;-76
2022/04/28 02:22:19;;;;;;;11.73;6.93;;;4.10;99.90;;;;;;5007218;28;20476;-76
2022/04/28 02:24:45;;;;;;;11.35;7.63;;;4.20;99.90;;;;;;5005973;28;20034;-77
2022/04/28 02:27:11;;;;;;;14.30;6.70;;;4.20;99.90;;;;;;5005172;28;20108;-77
2022/04/28 02:29:36;;;;;;;11.35;6.10;;;4.30;99.90;;;;;;5004821;28;20109;-77
2022/04/28 02:32:03;;;;;;;15.88;7.05;;;4.40;99.90;;;;;;5006320;28;20046;-76
2022/04/28 02:34:29;;;;;;;13.70;7.40;;;4.50;99.90;;;;;;5007127;28;20129;-76
2022/04/28 02:36:55;;;;;;;16.42;6.93;;;4.60;99.90;;;;;;4991549;28;20045;-76
2022/04/28 02:39:21;;;;;;;13.57;7.53;;;4.60;99.90;;;;;;5005948;28;20488;-76
2022/04/28 02:41:47;;;;;;;14.18;7.35;;;4.60;99.90;;;;;;5006449;28;20041;-76
2022/04/28 02:44:13;;;;;;;14.40;7.80;;;4.70;99.90;;;;;;5005449;28;20073;-76
2022/04/28 02:46:40;;;;;;;13.55;8.35;;;4.80;99.90;;;;;;5022091;28;20048;-76
2022/04/28 02:49:06;;;;;;;14.98;7.28;;;4.80;99.90;;;;;;5005332;28;20038;-76
2022/04/28 02:51:32;;;;;;;12.98;8.27;;;4.90;99.90;;;;;;5007451;28;20056;-76
2022/04/28 02:53:57;;;;;;;13.25;7.50;;;4.90;99.90;;;;;;5007024;28;20046;-76
2022/04/28 02:56:25;;;;;;;15.68;7.20;;;5.00;99.90;;;;;;5005664;28;20048;-76
2022/04/28 02:58:51;;;;;;;14.13;6.97;;;5.10;99.90;;;;;;5007081;28;20072;-76
2022/04/28 03:01:17;;;;;;;14.27;8.00;;;5.00;99.90;;;;;;5005311;28;20061;-76
2022/04/28 03:03:42;;;;;;;11.38;7.15;;;5.10;99.90;;;;;;4990082;28;20053;-76
2022/04/28 03:11:36;;;;;;;11.57;7.15;;;5.20;99.90;;;;;;5005710;28;20046;-76
2022/04/28 03:14:02;;;;;;;12.02;7.68;;;5.20;99.90;;;;;;5009203;28;20042;-76
2022/04/28 03:16:28;;;;;;;14.20;6.95;;;5.20;99.90;;;;;;4994034;28;20042;-76
2022/04/28 03:18:53;;;;;;;12.43;8.00;;;5.30;99.90;;;;;;4989866;28;20396;-76
2022/04/28 03:21:19;;;;;;;14.70;6.75;;;5.30;99.90;;;;;;5011298;28;20084;-76
2022/04/28 03:23:45;;;;;;;16.02;8.25;;;5.30;99.90;;;;;;5011411;28;20116;-76
2022/04/28 03:26:11;;;;;;;15.07;6.75;;;5.30;99.90;;;;;;5003172;28;20128;-76
2022/04/28 03:28:38;;;;;;;16.60;8.38;;;5.30;99.90;;;;;;5011212;28;20041;-76
2022/04/28 03:31:04;;;;;;;15.27;8.18;;;5.40;99.90;;;;;;5010777;28;20041;-76
2022/04/28 03:33:30;;;;;;;10.23;6.88;;;5.40;99.90;;;;;;5000568;28;20046;-76
2022/04/28 03:35:56;;;;;;;13.20;7.28;;;5.50;99.90;;;;;;5009591;28;20134;-76
2022/04/28 03:38:21;;;;;;;12.30;7.40;;;5.50;99.90;;;;;;5011180;28;20092;-76
2022/04/28 03:40:47;;;;;;;17.58;7.95;;;5.60;99.90;;;;;;5010997;28;20046;-76
2022/04/28 03:43:12;;;;;;;11.15;6.68;;;5.60;99.90;;;;;;5010981;28;20050;-76
2022/04/28 03:45:39;;;;;;;12.82;7.57;;;5.60;99.90;;;;;;5010205;28;20384;-76
2022/04/28 03:48:08;;;;;;;16.50;6.90;;;5.70;99.90;;;;;;5010007;28;20046;-76
2022/04/28 03:50:34;;;;;;;11.70;7.03;;;5.70;99.90;;;;;;5010760;28;20076;-76
2022/04/28 03:53:00;;;;;;;16.75;7.60;;;5.70;99.90;;;;;;5011138;28;20508;-76
2022/04/28 03:55:26;;;;;;;10.60;6.68;;;5.70;99.90;;;;;;5009916;28;20041;-76
2022/04/28 03:57:52;;;;;;;12.52;6.10;;;5.80;99.90;;;;;;5010548;28;20034;-76
2022/04/28 04:00:19;;;;;;;10.85;6.82;;;5.80;99.90;;;;;;5010599;28;20044;-76
2022/04/28 04:02:45;;;;;;;10.38;6.85;;;5.80;99.90;;;;;;5009895;28;20060;-76
2022/04/28 04:05:11;;;;;;;13.52;6.97;;;5.80;99.90;;;;;;5007269;28;20133;-76
2022/04/28 04:07:39;;;;;;;10.95;7.32;;;5.80;99.90;;;;;;5009951;28;20600;-76
2022/04/28 04:10:08;;;;;;;14.18;6.32;;;5.80;99.90;;;;;;5010428;28;20037;-76
2022/04/28 04:12:34;;;;;;;12.68;7.25;;;5.80;99.90;;;;;;5010107;28;20074;-76
2022/04/28 04:15:00;;;;;;;13.57;7.00;;;5.90;99.90;;;;;;5010655;28;20428;-76
2022/04/28 04:17:25;;;;;;;14.13;6.63;;;5.90;99.90;;;;;;5003663;28;20038;-76
2022/04/28 04:19:51;;;;;;;15.32;7.97;;;5.90;99.90;;;;;;5005675;28;20074;-76
2022/04/28 04:22:17;;;;;;;13.57;7.60;;;6.00;99.90;;;;;;5009971;28;20121;-76
2022/04/28 04:24:42;;;;;;;11.52;6.53;;;5.90;99.90;;;;;;5010317;28;20096;-76
2022/04/28 04:27:09;;;;;;;16.73;7.80;;;5.90;99.90;;;;;;5004236;28;20472;-76
2022/04/28 04:29:36;;;;;;;9.73;6.60;;;5.90;99.90;;;;;;5009864;28;20092;-76
2022/04/28 04:34:46;;;;;;;11.98;6.22;;;5.80;99.90;;;;;;5009834;28;20469;-76
2022/04/28 04:37:12;;;;;;;9.32;6.30;;;5.80;99.90;;;;;;5007420;28;20086;-76
2022/04/28 04:39:38;;;;;;;12.13;7.07;;;5.90;99.90;;;;;;5010275;28;20092;-76
2022/04/28 04:42:04;;;;;;;14.38;7.47;;;5.90;99.90;;;;;;5010302;28;20119;-76
2022/04/28 04:44:29;;;;;;;10.70;6.63;;;5.90;99.90;;;;;;5010100;28;20041;-76
2022/04/28 04:46:55;;;;;;;17.08;7.68;;;5.90;99.90;;;;;;5008642;28;20064;-76
2022/04/28 04:49:20;;;;;;;15.05;7.88;;;6.00;99.90;;;;;;5009978;28;20431;-76
2022/04/28 04:51:46;;;;;;;16.90;8.18;;;6.00;99.90;;;;;;4998171;28;20717;-76
2022/04/28 04:54:12;;;;;;;12.63;7.93;;;6.10;99.90;;;;;;5007198;28;20051;-76
2022/04/28 04:56:38;;;;;;;15.15;8.15;;;6.10;99.90;;;;;;5008756;28;20038;-76
2022/04/28 04:59:04;;;;;;;12.75;7.30;;;6.20;99.90;;;;;;5008914;28;20064;-76
2022/04/28 05:01:29;;;;;;;20.98;8.50;;;6.20;99.90;;;;;;5009930;28;20034;-76
2022/04/28 05:03:55;;;;;;;14.90;7.78;;;6.20;99.90;;;;;;5010384;28;20045;-76
2022/04/28 05:06:20;;;;;;;16.30;8.40;;;6.30;99.90;;;;;;5007542;28;20594;-76
2022/04/28 05:08:46;;;;;;;14.13;7.55;;;6.40;99.90;;;;;;5009817;28;20530;-76
2022/04/28 05:11:12;;;;;;;15.55;6.78;;;6.40;99.90;;;;;;5009811;28;20048;-76
2022/04/28 05:13:38;;;;;;;10.13;6.28;;;6.50;99.90;;;;;;5010204;28;20077;-76
2022/04/28 05:16:04;;;;;;;9.80;6.32;;;6.50;99.90;;;;;;5008870;28;20034;-76
2022/04/28 05:18:29;;;;;;;15.10;7.68;;;6.50;99.90;;;;;;5009822;28;20093;-76
2022/04/28 05:20:55;;;;;;;10.07;7.15;;;6.50;99.90;;;;;;4993460;28;20508;-76
2022/04/28 05:23:21;;;;;;;15.27;8.18;;;6.60;99.90;;;;;;5008429;28;20041;-76
2022/04/28 05:25:47;;;;;;;14.63;7.60;;;6.60;99.90;;;;;;5009887;28;20042;-76
2022/04/28 05:28:13;;;;;;;12.05;7.82;;;6.60;99.90;;;;;;5013339;28;20054;-76
2022/04/28 05:30:39;;;;;;;10.40;7.47;;;6.60;99.90;;;;;;5013292;28;20045;-76
2022/04/28 05:33:05;;;;;;;11.77;7.55;;;6.70;99.90;;;;;;5013895;28;20057;-76
2022/04/28 05:35:31;;;;;;;12.82;6.47;;;6.70;99.90;;;;;;5013099;28;20038;-76
2022/04/28 05:37:57;;;;;;;11.90;6.95;;;6.70;99.90;;;;;;5011870;28;20229;-76
2022/04/28 05:40:23;;;;;;;11.82;7.88;;;6.80;99.90;;;;;;4991184;28;20042;-76
2022/04/28 05:45:43;;;;;;;10.68;7.63;;;7.00;99.90;;;;;;5012253;28;20049;-76
2022/04/28 05:48:19;;;;;;;14.13;8.98;;;7.10;99.90;;;;;;5013044;28;20046;-76
2022/04/28 05:50:45;;;;;;;14.73;8.27;;;7.20;99.90;;;;;;5013019;28;20041;-76
2022/04/28 05:53:11;;;;;;;13.70;7.70;;;7.20;99.90;;;;;;5013066;28;20050;-76
2022/04/28 05:55:38;;;;;;;13.30;7.32;;;7.20;99.90;;;;;;4980749;28;20042;-76
2022/04/28 05:58:04;;;;;;;18.30;9.23;;;7.20;99.90;;;;;;5007580;28;20100;-76
2022/04/28 06:00:32;;;;;;;11.82;6.95;;;7.30;99.90;;;;;;5013048;28;20045;-76
2022/04/28 06:02:58;;;;;;;14.75;8.07;;;7.30;99.90;;;;;;4996892;28;20046;-76
2022/04/28 06:05:24;;;;;;;11.35;7.10;;;7.40;99.90;;;;;;5011771;28;20116;-76
2022/04/28 06:07:50;;;;;;;10.05;6.88;;;7.50;99.90;;;;;;4996355;28;20480;-76
2022/04/28 06:10:16;;;;;;;11.18;6.72;;;7.60;99.90;;;;;;4996302;28;20033;-76
2022/04/28 06:12:42;;;;;;;15.73;7.22;;;7.70;99.90;;;;;;4996471;28;20050;-75
2022/04/28 06:15:08;;;;;;;15.10;5.78;;;7.90;99.90;;;;;;5008053;28;20078;-75
2022/04/28 06:17:34;;;;;;;11.95;5.07;;;8.00;99.90;;;;;;4995105;28;20431;-76
2022/04/28 06:20:00;;;;;;;10.45;4.90;;;8.20;99.90;;;;;;5010275;28;20042;-76
2022/04/28 06:22:26;;;;;;;8.25;4.68;;;8.40;99.90;;;;;;5011669;28;20081;-75
2022/04/28 06:24:52;;;;;;;7.13;4.18;;;8.50;99.90;;;;;;5012354;28;20077;-76
2022/04/28 06:27:18;;;;;;;13.93;4.28;;;8.70;99.90;;;;;;5007258;28;20386;-76
2022/04/28 06:29:44;;;;;;;5.97;4.28;;;8.80;99.90;;;;;;5012127;28;20484;-75
2022/04/28 06:32:10;;;;;;;13.68;4.78;;;9.00;99.90;;;;;;5011330;28;20042;-75
2022/04/28 06:34:36;;;;;;;9.30;4.00;;;9.00;99.90;;;;;;5012124;28;20096;-76
2022/04/28 06:37:02;;;;;;;10.20;4.65;;;9.20;99.90;;;;;;5008021;28;20034;-75
2022/04/28 06:39:28;;;;;;;9.50;4.03;;;9.50;99.90;;;;;;5009324;28;20041;-75
2022/04/28 06:41:53;;;;;;;10.23;4.32;;;9.70;99.90;;;;;;5012238;28;20442;-75
2022/04/28 06:44:19;;;;;;;6.28;3.47;;;9.80;99.90;;;;;;5012172;28;20144;-75
2022/04/28 06:46:44;;;;;;;6.05;3.63;;;10.00;99.90;;;;;;5009151;28;20420;-75
2022/04/28 06:49:10;;;;;;;6.38;2.17;;;10.10;99.90;;;;;;5011876;28;20082;-75
2022/04/28 06:51:35;;;;;;;7.25;3.10;;;10.10;99.90;;;;;;5012010;28;20459;-75
2022/04/28 06:54:02;;;;;;;9.10;2.50;;;10.20;99.90;;;;;;5012119;28;20046;-75
2022/04/28 06:56:27;;;;;;;7.50;3.10;;;10.30;99.90;;;;;;5011086;28;20472;-75
2022/04/28 06:58:53;;;;;;;6.95;2.65;;;10.30;99.90;;;;;;5010294;28;20084;-75
2022/04/28 07:01:19;;;;;;;12.35;3.40;;;10.30;99.90;;;;;;5009879;28;20041;-75
2022/04/28 07:03:44;;;;;;;8.27;3.20;;;10.30;99.90;;;;;;5011712;28;20411;-75
2022/04/28 07:06:10;;;;;;;7.82;3.63;;;10.40;99.90;;;;;;5010522;28;20041;-76
2022/04/28 07:08:35;;;;;;;6.72;2.72;;;10.40;99.90;;;;;;5011087;28;20069;-75
2022/04/28 07:11:01;;;;;;;7.65;2.03;;;10.50;99.90;;;;;;5009305;28;20128;-75
2022/04/28 07:13:26;;;;;;;6.70;2.50;;;10.40;99.90;;;;;;5010516;28;20038;-75
2022/04/28 07:15:52;;;;;;;7.43;3.13;;;10.30;99.90;;;;;;5003028;28;20373;-75
2022/04/28 07:18:17;;;;;;;5.90;2.33;;;10.30;99.90;;;;;;5008059;28;20080;-75
2022/04/28 07:20:46;;;;;;;5.93;2.08;;;10.30;99.90;;;;;;5000573;28;20042;-75
2022/04/28 07:23:11;;;;;;;6.43;2.47;;;10.50;99.90;;;;;;5004530;28;20053;-75
2022/04/28 07:25:37;;;;;;;5.45;1.80;;;10.70;99.90;;;;;;5011348;28;20034;-75
2022/04/28 07:28:03;;;;;;;7.55;1.80;;;10.90;99.90;;;;;;5011248;28;20113;-75
2022/04/28 07:30:29;;;;;;;8.88;2.03;;;11.00;99.90;;;;;;5010978;28;20506;-75
2022/04/28 07:32:54;;;;;;;3.88;1.63;;;11.10;99.90;;;;;;5011100;28;20037;-75
2022/04/28 07:35:21;;;;;;;4.82;1.35;;;11.20;99.90;;;;;;5008772;28;20472;-75
2022/04/28 07:37:47;;;;;;;3.95;0.85;;;11.60;99.90;;;;;;5011062;28;20064;-75
2022/04/28 07:40:13;;;;;;;5.03;1.08;;;12.10;99.90;;;;;;5011005;28;20042;-75
2022/04/28 07:42:40;;;;;;;9.13;1.05;;;12.00;99.90;;;;;;5011096;28;20049;-75
2022/04/28 07:45:06;;;;;;;4.68;1.15;;;11.80;99.90;;;;;;5008232;28;20049;-75
2022/04/28 07:47:32;;;;;;;5.78;0.73;;;11.70;99.90;;;;;;5009446;28;20050;-75
2022/04/28 07:49:57;;;;;;;5.57;1.10;;;11.40;99.90;;;;;;4993679;28;20473;-75
2022/04/28 07:52:23;;;;;;;29.92;15.98;;;11.30;99.90;;;;;;5010768;28;20038;-75
2022/04/28 07:54:49;;;;;;;36.63;19.10;;;11.30;99.90;;;;;;5010712;28;20040;-75
2022/04/28 07:57:15;;;;;;;26.60;14.65;;;11.30;99.90;;;;;;5000390;28;20196;-74
2022/04/28 07:59:41;;;;;;;113.00;66.40;;;11.20;99.90;;;;;;5008273;28;20128;-75
2022/04/28 08:02:11;;;;;;;24.70;12.30;;;11.10;99.90;;;;;;5010604;28;20049;-75
2022/04/28 08:04:37;;;;;;;19.10;10.75;;;11.10;99.90;;;;;;5010043;28;20034;-75
2022/04/28 08:07:03;;;;;;;149.00;103.65;;;11.00;99.90;;;;;;5010378;28;20038;-75
2022/04/28 08:09:29;;;;;;;27.23;15.70;;;11.00;99.90;;;;;;5011056;28;20116;-75
2022/04/28 08:11:55;;;;;;;8.15;2.72;;;11.00;99.90;;;;;;5010418;28;20045;-75
2022/04/28 08:14:23;;;;;;;5.05;0.60;;;11.30;99.90;;;;;;5001498;28;20090;-75
2022/04/28 08:16:50;;;;;;;3.28;0.68;;;11.90;99.90;;;;;;5014924;28;20380;-75
2022/04/28 08:19:15;;;;;;;5.80;0.80;;;12.30;99.90;;;;;;5011951;28;20053;-75
2022/04/28 08:21:41;;;;;;;7.80;0.90;;;12.30;99.30;;;;;;5010395;28;20116;-75
2022/04/28 08:24:07;;;;;;;3.28;0.68;;;12.20;98.60;;;;;;5008457;28;20052;-75
2022/04/28 08:26:32;;;;;;;5.30;0.88;;;12.10;97.50;;;;;;5010289;28;20121;-75
2022/04/28 08:28:58;;;;;;;4.47;0.70;;;11.90;96.50;;;;;;5010131;28;20054;-75
2022/04/28 08:31:24;;;;;;;3.15;0.60;;;11.90;95.20;;;;;;5010159;28;20046;-75
2022/04/28 08:33:49;;;;;;;2.58;0.50;;;11.90;95.30;;;;;;4989393;28;20068;-75
2022/04/28 08:36:15;;;;;;;3.08;0.68;;;11.80;95.40;;;;;;4993409;28;20546;-75
2022/04/28 08:38:42;;;;;;;5.95;0.70;;;11.90;97.00;;;;;;5009301;28;20558;-75
2022/04/28 08:41:11;;;;;;;6.82;1.67;;;12.00;95.60;;;;;;5010030;28;20041;-75
2022/04/28 08:43:37;;;;;;;7.88;1.63;;;11.90;94.90;;;;;;5011471;28;20529;-76
2022/04/28 08:48:53;;;;;;;3.67;0.88;;;11.90;94.60;;;;;;5005210;28;20137;-75
2022/04/28 08:51:20;;;;;;;17.38;10.05;;;11.80;94.60;;;;;;5005977;28;20048;-76
2022/04/28 08:53:49;;;;;;;22.58;12.07;;;11.80;94.70;;;;;;5011448;28;20148;-76
2022/04/28 08:56:19;;;;;;;328.80;210.05;;;11.70;93.60;;;;;;5008263;28;20038;-76
2022/04/28 08:58:45;;;;;;;37.92;21.70;;;11.70;93.20;;;;;;4996926;28;20091;-77
2022/04/28 09:01:11;;;;;;;20.10;11.02;;;11.80;93.80;;;;;;5012717;28;20069;-76
2022/04/28 09:03:36;;;;;;;62.13;36.20;;;12.40;92.60;;;;;;5013247;28;20073;-76
2022/04/28 09:06:21;;;;;;;17.08;8.57;;;13.00;91.20;;;;;;5013789;28;20049;-76
2022/04/28 09:08:48;;;;;;;6.43;1.47;;;13.60;87.30;;;;;;5009921;28;20045;-76
2022/04/28 09:11:22;;;;;;;5.90;1.20;;;14.10;87.20;;;;;;5010408;28;20129;-77
2022/04/28 09:14:13;;;;;;;3.55;1.00;;;14.50;81.80;;;;;;4996459;28;20675;-75
2022/04/28 09:16:51;;;;;;;5.53;1.10;;;14.90;79.20;;;;;;4986888;28;20088;-75
2022/04/28 09:19:39;;;;;;;5.00;1.25;;;15.10;80.70;;;;;;5006634;28;20038;-75
2022/04/28 09:22:12;;;;;;;7.38;0.98;;;15.20;77.90;;;;;;5013061;28;20042;-76
2022/04/28 09:24:39;;;;;;;4.25;1.20;;;15.20;78.50;;;;;;5012523;28;20407;-75
2022/04/28 09:27:06;;;;;;;8.93;1.08;;;15.10;79.20;;;;;;5012400;28;20053;-75
2022/04/28 09:29:36;;;;;;;7.07;1.55;;;15.00;79.40;;;;;;5041063;23;21203;-79
2022/04/28 09:32:08;;;;;;;5.38;0.95;;;14.80;78.30;;;;;;5032398;28;20126;-79
2022/04/28 09:34:34;;;;;;;7.47;1.50;;;15.20;79.10;;;;;;5021585;28;20037;-80
2022/04/28 09:37:00;;;;;;;6.68;1.40;;;15.70;80.20;;;;;;5034407;28;20047;-80
2022/04/28 09:42:33;;;;;;;4.20;0.93;;;16.20;76.20;;;;;;5019375;28;20109;-80
2022/04/28 09:45:01;;;;;;;5.45;0.98;;;15.90;74.80;;;;;;5018561;28;20050;-80
2022/04/28 09:47:28;;;;;;;4.40;1.17;;;15.80;75.30;;;;;;5013512;28;20148;-80
2022/04/28 09:49:55;;;;;;;10.32;1.65;;;15.60;75.60;;;;;;5013951;28;20052;-80
2022/04/28 09:52:24;;;;;;;2.50;0.75;;;15.20;75.40;;;;;;5010472;28;20042;-80
2022/04/28 09:54:51;;;;;;;3.80;0.75;;;14.90;74.80;;;;;;5012371;28;20123;-80
2022/04/28 09:57:18;;;;;;;4.43;1.33;;;14.70;76.70;;;;;;5013241;28;20041;-80
2022/04/28 09:59:45;;;;;;;5.93;1.17;;;14.70;77.10;;;;;;5013508;28;20049;-80
2022/04/28 10:02:15;;;;;;;3.72;1.45;;;14.80;76.30;;;;;;5012511;28;20124;-81
2022/04/28 10:04:42;;;;;;;8.43;1.88;;;15.00;75.60;;;;;;5012441;28;20045;-80
2022/04/28 10:07:09;;;;;;;4.80;1.10;;;15.30;75.90;;;;;;5013640;28;20125;-80
2022/04/28 10:09:35;;;;;;;3.38;1.10;;;15.70;76.60;;;;;;5014473;28;20587;-79
2022/04/28 10:12:03;;;;;;;7.45;2.00;;;15.60;74.70;;;;;;5012723;28;20431;-80
2022/04/28 10:14:29;;;;;;;3.03;1.50;;;15.00;74.50;;;;;;5016829;28;20041;-80
2022/04/28 10:16:57;;;;;;;5.32;1.52;;;14.60;75.70;;;;;;5014285;28;20038;-80
2022/04/28 10:19:28;;;;;;;4.20;1.70;;;14.30;77.30;;;;;;5013424;28;20042;-80
2022/04/28 10:22:07;;;;;;;6.20;2.40;;;14.20;77.60;;;;;;5011844;28;20053;-79
2022/04/28 10:33:17;;;;;;;6.20;2.30;;;14.50;78.50;;;;;;5071284;28;20044;-80
2022/04/28 10:36:14;;;;;;;7.88;2.88;;;14.60;78.40;;;;;;5086881;28;20040;-81
2022/04/28 10:38:42;;;;;;;3.75;1.92;;;14.80;76.70;;;;;;5068085;28;20119;-80
2022/04/28 10:41:11;;;;;;;4.63;2.00;;;14.80;76.70;;;;;;5061748;28;20052;-80
2022/04/28 10:43:39;;;;;;;7.82;1.70;;;14.70;77.20;;;;;;5053040;28;20056;-80
2022/04/28 10:46:39;;;;;;;7.28;1.48;;;14.80;78.00;;;;;;5075051;28;20071;-80
2022/04/28 10:49:35;;;;;;;6.13;1.80;;;15.00;76.80;;;;;;5092731;28;20040;-80
2022/04/28 10:52:26;;;;;;;6.55;2.25;;;15.00;75.10;;;;;;5070231;28;20059;-80
2022/04/28 10:55:01;;;;;;;8.15;2.38;;;15.00;74.50;;;;;;5070162;28;20094;-80
2022/04/28 10:57:53;;;;;;;119.47;72.15;;;15.10;76.70;;;;;;5061302;28;20044;-80
2022/04/28 11:00:39;;;;;;;62.07;37.23;;;15.10;75.90;;;;;;5079892;28;20370;-80
2022/04/28 11:03:18;;;;;;;44.38;26.63;;;15.10;74.80;;;;;;5055289;28;20291;-80
2022/04/28 11:05:59;;;;;;;51.38;32.78;;;15.00;76.50;;;;;;5052853;28;20439;-80
2022/04/28 11:08:34;;;;;;;105.80;79.03;;;15.10;75.70;;;;;;5078482;28;20040;-80
2022/04/28 11:11:19;;;;;;;12.63;5.95;;;15.00;74.50;;;;;;5084113;28;20043;-80
2022/04/28 11:13:56;;;;;;;7.03;1.98;;;14.80;74.60;;;;;;5071986;28;20120;-80
2022/04/28 11:16:32;;;;;;;6.13;2.28;;;14.90;75.60;;;;;;5058207;28;20041;-80
2022/04/28 11:19:02;;;;;;;8.10;2.75;;;15.20;75.20;;;;;;5063762;28;20079;-80
2022/04/28 11:21:28;;;;;;;6.20;2.35;;;15.20;74.40;;;;;;5066349;28;20045;-78
2022/04/28 11:23:55;;;;;;;5.75;2.20;;;15.10;74.80;;;;;;5076441;28;20176;-78
2022/04/28 11:26:26;;;;;;;9.73;3.63;;;15.30;76.00;;;;;;5086876;28;20161;-78
2022/04/28 11:28:52;;;;;;;7.85;2.50;;;15.50;74.70;;;;;;5063990;28;20073;-80
2022/04/28 11:31:19;;;;;;;7.78;3.10;;;15.50;74.10;;;;;;5088642;28;20122;-84
2022/04/28 11:33:49;;;;;;;7.30;2.65;;;15.60;73.50;;;;;;5079778;28;20032;-82
2022/04/28 11:36:28;;;;;;;5.72;2.80;;;15.50;73.60;;;;;;5069259;28;20035;-83
2022/04/28 11:39:00;;;;;;;10.05;2.85;;;15.40;72.40;;;;;;5074476;28;20060;-85
2022/04/28 11:41:39;;;;;;;10.15;3.58;;;15.40;73.20;;;;;;5052888;28;20115;-83
2022/04/28 11:44:16;;;;;;;5.28;2.58;;;15.40;72.00;;;;;;5071555;28;20040;-83
2022/04/28 11:46:45;;;;;;;6.28;2.35;;;15.30;73.40;;;;;;5053657;28;20044;-83
2022/04/28 11:49:11;;;;;;;7.45;2.30;;;15.50;73.80;;;;;;5076861;28;20048;-81
2022/04/28 11:51:37;;;;;;;6.85;3.15;;;15.70;74.00;;;;;;5077478;28;20446;-82
2022/04/28 11:54:04;;;;;;;9.50;2.80;;;15.70;72.60;;;;;;5092221;28;20044;-82
2022/04/28 11:56:33;;;;;;;9.90;3.00;;;15.80;72.90;;;;;;5089672;28;20131;-84
2022/04/28 11:59:03;;;;;;;6.85;2.80;;;15.80;72.00;;;;;;5056631;28;20059;-88
2022/04/28 12:01:32;;;;;;;9.10;2.63;;;15.60;72.40;;;;;;5061962;28;20071;-82
2022/04/28 12:03:59;;;;;;;8.90;2.88;;;15.00;75.10;;;;;;5093005;28;20051;-82
2022/04/28 12:06:25;;;;;;;8.38;2.78;;;14.30;77.20;;;;;;5099568;28;20020;-82
2022/04/28 12:14:31;;;;;;;6.87;3.40;;;14.10;82.40;;;;;;5090830;28;20032;-83
2022/04/28 12:19:51;;;;;;;223.77;179.23;;;14.10;81.00;;;;;;5079012;28;20037;-84
2022/04/28 12:22:44;;;;;;;26.27;15.50;;;14.30;81.30;;;;;;5075983;28;20495;-85
2022/04/28 12:25:11;;;;;;;8.38;3.65;;;14.50;80.30;;;;;;5056149;28;20052;-84
2022/04/28 12:27:38;;;;;;;8.60;3.35;;;14.60;79.50;;;;;;5061208;28;20036;-83
2022/04/28 12:30:09;;;;;;;9.70;3.75;;;14.80;79.30;;;;;;5078826;28;20056;-84
2022/04/28 12:32:43;;;;;;;6.18;2.83;;;14.90;77.90;;;;;;5073112;28;20036;-82
2022/04/28 12:35:08;;;;;;;6.47;3.15;;;15.10;76.20;;;;;;5081832;28;20045;-82
2022/04/28 12:37:38;;;;;;;68.57;48.70;;;15.30;76.50;;;;;;5038413;28;20047;-82
2022/04/28 12:40:05;;;;;;;33.17;22.55;;;15.40;77.20;;;;;;5088126;28;20498;-83
2022/04/28 12:42:45;;;;;;;11.57;5.68;;;15.50;74.80;;;;;;5058689;28;20066;-83
2022/04/28 12:45:12;;;;;;;8.25;2.47;;;15.20;74.10;;;;;;5076048;28;20115;-82
2022/04/28 12:47:39;;;;;;;7.72;2.05;;;15.20;75.00;;;;;;5075177;28;20040;-81
2022/04/28 12:50:25;;;;;;;8.10;2.80;;;15.40;75.30;;;;;;5059174;28;20048;-82
2022/04/28 12:52:51;;;;;;;5.78;2.38;;;15.80;73.10;;;;;;5076832;28;20032;-83
2022/04/28 12:55:21;;;;;;;5.68;2.35;;;15.80;73.50;;;;;;5076418;28;20029;-82
2022/04/28 12:57:48;;;;;;;6.85;2.35;;;15.70;72.70;;;;;;5064146;28;20112;-81
2022/04/28 13:00:15;;;;;;;8.02;2.10;;;15.60;73.30;;;;;;5063150;28;20041;-82
2022/04/28 13:02:50;;;;;;;7.00;2.33;;;15.40;72.60;;;;;;5064584;28;20123;-83
2022/04/28 13:05:18;;;;;;;6.07;2.88;;;15.30;73.70;;;;;;5085251;28;20051;-83
2022/04/28 13:07:44;;;;;;;7.88;2.28;;;15.30;74.00;;;;;;5093380;28;20464;-81
2022/04/28 13:10:13;;;;;;;6.07;1.90;;;15.40;73.60;;;;;;5080669;28;20068;-81
2022/04/28 13:12:39;;;;;;;7.82;2.22;;;15.30;73.30;;;;;;5076494;28;20046;-82
2022/04/28 13:15:06;;;;;;;9.00;3.03;;;15.10;72.70;;;;;;5074951;28;20033;-82
2022/04/28 13:17:31;;;;;;;9.10;2.72;;;15.00;73.10;;;;;;5070118;28;20025;-82
2022/04/28 13:19:57;;;;;;;11.73;6.90;;;15.20;74.20;;;;;;5079772;28;20104;-82
2022/04/28 13:22:24;;;;;;;26.25;17.60;;;15.50;74.00;;;;;;5078921;28;20088;-83
2022/04/28 13:24:49;;;;;;;27.92;16.10;;;15.60;73.60;;;;;;5078445;28;20085;-83
2022/04/28 13:27:15;;;;;;;83.55;54.30;;;15.50;73.40;;;;;;5071945;28;20100;-82